sensor_id;sensor_type;location;lat;lon;timestamp;temperature;humidity
14511;DHT22;7341;50.930;4.038;2022-12-22T00:00:26;11.50;99.90
14511;DHT22;7341;50.930;4.038;2022-12-22T00:03:14;11.60;99.90
14511;DHT22;7341;50.930;4.038;2022-12-22T00:06:08;11.60;99.90
14511;DHT22;7341;50.930;4.038;2022-12-22T00:08:54;11.50;99.90
14511;DHT22;7341;50.930;4.038;2022-12-22T00:11:44;11.50;99.90
14511;DHT22;7341;50.930;4.038;2022-12-22T00:14:30;11.50;99.90
14511;DHT22;7341;50.930;4.038;2022-12-22T00:17:23;11.50;99.90
14511;DHT22;7341;50.930;4.038;2022-12-22T00:20:16;11.40;99.90
14511;DHT22;7341;50.930;4.038;2022-12-22T00:23:04;11.40;99.90
14511;DHT22;7341;50.930;4.038;2022-12-22T00:25:48;11.60;99.90
14511;DHT22;7341;50.930;4.038;2022-12-22T00:28:34;11.60;99.90
14511;DHT22;7341;50.930;4.038;2022-12-22T00:31:19;11.50;99.90
14511;DHT22;7341;50.930;4.038;2022-12-22T00:34:07;11.60;99.90
14511;DHT22;7341;50.930;4.038;2022-12-22T00:36:52;11.50;99.90
14511;DHT22;7341;50.930;4.038;2022-12-22T00:39:43;11.50;99.90
14511;DHT22;7341;50.930;4.038;2022-12-22T00:42:34;11.40;99.90
14511;DHT22;7341;50.930;4.038;2022-12-22T00:45:22;11.50;99.90
14511;DHT22;7341;50.930;4.038;2022-12-22T00:48:19;11.60;99.90
14511;DHT22;7341;50.930;4.038;2022-12-22T00:51:04;11.50;99.90
14511;DHT22;7341;50.930;4.038;2022-12-22T00:59:51;11.30;99.90
14511;DHT22;7341;50.930;4.038;2022-12-22T01:02:40;11.30;99.90
14511;DHT22;7341;50.930;4.038;2022-12-22T01:05:26;11.30;99.90
14511;DHT22;7341;50.930;4.038;2022-12-22T01:08:11;11.30;99.90
14511;DHT22;7341;50.930;4.038;2022-12-22T01:10:55;11.30;99.90
14511;DHT22;7341;50.930;4.038;2022-12-22T01:13:43;11.30;99.90
14511;DHT22;7341;50.930;4.038;2022-12-22T01:16:31;11.40;99.90
14511;DHT22;7341;50.930;4.038;2022-12-22T01:19:16;11.50;99.90
14511;DHT22;7341;50.930;4.038;2022-12-22T01:22:02;11.60;99.90
14511;DHT22;7341;50.930;4.038;2022-12-22T01:24:46;11.40;99.90
14511;DHT22;7341;50.930;4.038;2022-12-22T01:27:56;11.50;99.90
14511;DHT22;7341;50.930;4.038;2022-12-22T01:30:41;11.70;99.90
14511;DHT22;7341;50.930;4.038;2022-12-22T01:33:29;11.70;99.90
14511;DHT22;7341;50.930;4.038;2022-12-22T01:36:17;11.70;99.90
14511;DHT22;7341;50.930;4.038;2022-12-22T01:39:01;11.80;99.90
14511;DHT22;7341;50.930;4.038;2022-12-22T01:41:47;11.70;99.90
14511;DHT22;7341;50.930;4.038;2022-12-22T01:44:32;11.80;99.90
14511;DHT22;7341;50.930;4.038;2022-12-22T01:47:31;11.80;99.90
14511;DHT22;7341;50.930;4.038;2022-12-22T01:50:24;11.80;99.90
14511;DHT22;7341;50.930;4.038;2022-12-22T01:53:16;11.70;99.90
14511;DHT22;7341;50.930;4.038;2022-12-22T01:56:03;11.60;99.90
14511;DHT22;7341;50.930;4.038;2022-12-22T01:58:50;11.70;99.90
14511;DHT22;7341;50.930;4.038;2022-12-22T02:01:38;11.70;99.90
14511;DHT22;7341;50.930;4.038;2022-12-22T02:04:29;11.80;99.90
14511;DHT22;7341;50.930;4.038;2022-12-22T02:07:32;11.70;99.90
14511;DHT22;7341;50.930;4.038;2022-12-22T02:10:40;11.80;99.90
14511;DHT22;7341;50.930;4.038;2022-12-22T02:13:36;11.80;99.90
14511;DHT22;7341;50.930;4.038;2022-12-22T02:16:28;11.80;99.90
14511;DHT22;7341;50.930;4.038;2022-12-22T02:19:37;11.80;99.90
14511;DHT22;7341;50.930;4.038;2022-12-22T02:22:34;12.00;99.90
14511;DHT22;7341;50.930;4.038;2022-12-22T02:25:29;12.00;99.90
14511;DHT22;7341;50.930;4.038;2022-12-22T02:28:21;11.80;99.90
14511;DHT22;7341;50.930;4.038;2022-12-22T02:31:09;11.80;99.90
14511;DHT22;7341;50.930;4.038;2022-12-22T02:33:56;11.70;99.90
14511;DHT22;7341;50.930;4.038;2022-12-22T02:36:48;11.50;99.90
14511;DHT22;7341;50.930;4.038;2022-12-22T02:39:45;11.50;99.90
14511;DHT22;7341;50.930;4.038;2022-12-22T02:42:34;11.60;99.90
14511;DHT22;7341;50.930;4.038;2022-12-22T02:45:30;11.60;99.90
14511;DHT22;7341;50.930;4.038;2022-12-22T02:48:21;11.60;99.90
14511;DHT22;7341;50.930;4.038;2022-12-22T02:51:10;11.90;99.90
14511;DHT22;7341;50.930;4.038;2022-12-22T02:53:58;12.00;99.90
14511;DHT22;7341;50.930;4.038;2022-12-22T02:56:46;11.90;99.90
14511;DHT22;7341;50.930;4.038;2022-12-22T02:59:30;11.80;99.90
14511;DHT22;7341;50.930;4.038;2022-12-22T03:02:18;11.80;99.90
14511;DHT22;7341;50.930;4.038;2022-12-22T03:05:06;11.80;99.90
14511;DHT22;7341;50.930;4.038;2022-12-22T03:07:50;11.90;99.90
14511;DHT22;7341;50.930;4.038;2022-12-22T03:10:37;11.90;99.90
14511;DHT22;7341;50.930;4.038;2022-12-22T03:13:24;11.80;99.90
14511;DHT22;7341;50.930;4.038;2022-12-22T03:16:11;11.80;99.90
14511;DHT22;7341;50.930;4.038;2022-12-22T03:18:58;11.80;99.90
14511;DHT22;7341;50.930;4.038;2022-12-22T03:21:45;11.80;99.90
14511;DHT22;7341;50.930;4.038;2022-12-22T03:24:30;11.80;99.90
14511;DHT22;7341;50.930;4.038;2022-12-22T03:27:18;11.80;99.90
14511;DHT22;7341;50.930;4.038;2022-12-22T03:29:46;11.80;99.90
14511;DHT22;7341;50.930;4.038;2022-12-22T03:32:12;11.80;99.90
14511;DHT22;7341;50.930;4.038;2022-12-22T03:34:43;11.90;99.90
14511;DHT22;7341;50.930;4.038;2022-12-22T03:37:09;11.80;99.90
14511;DHT22;7341;50.930;4.038;2022-12-22T03:39:38;11.80;99.90
14511;DHT22;7341;50.930;4.038;2022-12-22T03:42:08;11.80;99.90
14511;DHT22;7341;50.930;4.038;2022-12-22T03:44:54;11.70;99.90
14511;DHT22;7341;50.930;4.038;2022-12-22T03:47:41;11.70;99.90
14511;DHT22;7341;50.930;4.038;2022-12-22T03:50:11;11.80;99.90
14511;DHT22;7341;50.930;4.038;2022-12-22T03:52:40;11.70;99.90
14511;DHT22;7341;50.930;4.038;2022-12-22T03:55:09;11.80;99.90
14511;DHT22;7341;50.930;4.038;2022-12-22T03:57:41;11.80;99.90
14511;DHT22;7341;50.930;4.038;2022-12-22T04:00:15;11.80;99.90
14511;DHT22;7341;50.930;4.038;2022-12-22T04:02:43;11.70;99.90
14511;DHT22;7341;50.930;4.038;2022-12-22T04:05:14;11.70;99.90
14511;DHT22;7341;50.930;4.038;2022-12-22T04:07:41;11.30;99.90
14511;DHT22;7341;50.930;4.038;2022-12-22T04:10:09;11.50;99.90
14511;DHT22;7341;50.930;4.038;2022-12-22T04:12:54;11.50;99.90
14511;DHT22;7341;50.930;4.038;2022-12-22T04:15:26;11.60;99.90
14511;DHT22;7341;50.930;4.038;2022-12-22T04:17:56;11.60;99.90
14511;DHT22;7341;50.930;4.038;2022-12-22T04:20:26;11.60;99.90
14511;DHT22;7341;50.930;4.038;2022-12-22T04:22:55;11.70;99.90
14511;DHT22;7341;50.930;4.038;2022-12-22T04:25:22;11.50;99.90
14511;DHT22;7341;50.930;4.038;2022-12-22T04:27:52;11.50;99.90
14511;DHT22;7341;50.930;4.038;2022-12-22T04:30:24;11.60;99.90
14511;DHT22;7341;50.930;4.038;2022-12-22T04:32:51;11.40;99.90
14511;DHT22;7341;50.930;4.038;2022-12-22T04:35:25;11.40;99.90
14511;DHT22;7341;50.930;4.038;2022-12-22T04:37:54;11.40;99.90
14511;DHT22;7341;50.930;4.038;2022-12-22T04:40:24;11.30;99.90
14511;DHT22;7341;50.930;4.038;2022-12-22T04:42:56;11.30;99.90
14511;DHT22;7341;50.930;4.038;2022-12-22T04:45:29;11.20;99.90
14511;DHT22;7341;50.930;4.038;2022-12-22T04:47:58;11.30;99.90
14511;DHT22;7341;50.930;4.038;2022-12-22T04:50:26;11.30;99.90
14511;DHT22;7341;50.930;4.038;2022-12-22T04:52:53;11.30;99.90
14511;DHT22;7341;50.930;4.038;2022-12-22T04:55:20;11.30;99.90
14511;DHT22;7341;50.930;4.038;2022-12-22T04:57:48;11.20;99.90
14511;DHT22;7341;50.930;4.038;2022-12-22T05:00:34;11.20;99.90
14511;DHT22;7341;50.930;4.038;2022-12-22T05:03:17;11.10;99.90
14511;DHT22;7341;50.930;4.038;2022-12-22T05:06:19;11.00;99.90
14511;DHT22;7341;50.930;4.038;2022-12-22T05:09:15;10.80;99.90
14511;DHT22;7341;50.930;4.038;2022-12-22T05:11:54;10.90;99.90
14511;DHT22;7341;50.930;4.038;2022-12-22T05:14:47;10.90;99.90
14511;DHT22;7341;50.930;4.038;2022-12-22T05:17:22;10.80;99.90
14511;DHT22;7341;50.930;4.038;2022-12-22T05:19:52;10.90;99.90
14511;DHT22;7341;50.930;4.038;2022-12-22T05:22:34;10.80;99.90
14511;DHT22;7341;50.930;4.038;2022-12-22T05:25:36;10.80;99.90
14511;DHT22;7341;50.930;4.038;2022-12-22T05:28:04;10.80;99.90
14511;DHT22;7341;50.930;4.038;2022-12-22T05:30:46;10.80;99.90
14511;DHT22;7341;50.930;4.038;2022-12-22T05:33:17;10.70;99.90
14511;DHT22;7341;50.930;4.038;2022-12-22T05:36:10;10.70;99.90
14511;DHT22;7341;50.930;4.038;2022-12-22T05:38:49;10.70;99.90
14511;DHT22;7341;50.930;4.038;2022-12-22T05:41:17;10.70;99.90
14511;DHT22;7341;50.930;4.038;2022-12-22T05:43:49;10.60;99.90
14511;DHT22;7341;50.930;4.038;2022-12-22T05:46:25;10.70;99.90
14511;DHT22;7341;50.930;4.038;2022-12-22T05:52:32;10.90;99.90
14511;DHT22;7341;50.930;4.038;2022-12-22T05:55:11;10.80;99.90
14511;DHT22;7341;50.930;4.038;2022-12-22T05:58:00;10.80;99.90
14511;DHT22;7341;50.930;4.038;2022-12-22T06:00:28;10.80;99.90
14511;DHT22;7341;50.930;4.038;2022-12-22T06:03:01;10.80;99.90
14511;DHT22;7341;50.930;4.038;2022-12-22T06:05:54;10.80;99.90
14511;DHT22;7341;50.930;4.038;2022-12-22T06:08:49;10.80;99.90
14511;DHT22;7341;50.930;4.038;2022-12-22T06:11:33;10.80;99.90
14511;DHT22;7341;50.930;4.038;2022-12-22T06:14:26;10.70;99.90
14511;DHT22;7341;50.930;4.038;2022-12-22T06:23:56;10.50;99.90
14511;DHT22;7341;50.930;4.038;2022-12-22T06:34:49;10.20;99.90
14511;DHT22;7341;50.930;4.038;2022-12-22T06:37:41;10.00;99.90
14511;DHT22;7341;50.930;4.038;2022-12-22T06:47:21;10.00;99.90
14511;DHT22;7341;50.930;4.038;2022-12-22T06:57:09;10.20;99.90
14511;DHT22;7341;50.930;4.038;2022-12-22T06:59:41;10.30;99.90
14511;DHT22;7341;50.930;4.038;2022-12-22T07:02:18;10.10;99.90
14511;DHT22;7341;50.930;4.038;2022-12-22T07:18:21;10.00;99.90
14511;DHT22;7341;50.930;4.038;2022-12-22T07:34:29;9.90;99.90
14511;DHT22;7341;50.930;4.038;2022-12-22T07:37:17;9.90;99.90
14511;DHT22;7341;50.930;4.038;2022-12-22T07:43:55;9.80;99.90
14511;DHT22;7341;50.930;4.038;2022-12-22T07:46:54;9.80;99.90
14511;DHT22;7341;50.930;4.038;2022-12-22T07:49:58;9.80;99.90
14511;DHT22;7341;50.930;4.038;2022-12-22T07:53:20;9.80;99.90
14511;DHT22;7341;50.930;4.038;2022-12-22T08:00:19;9.70;99.90
14511;DHT22;7341;50.930;4.038;2022-12-22T08:28:21;9.60;99.90
14511;DHT22;7341;50.930;4.038;2022-12-22T08:38:12;9.60;99.90
14511;DHT22;7341;50.930;4.038;2022-12-22T08:44:44;9.70;99.90
14511;DHT22;7341;50.930;4.038;2022-12-22T08:47:16;9.60;99.90
14511;DHT22;7341;50.930;4.038;2022-12-22T08:49:43;9.70;99.90
14511;DHT22;7341;50.930;4.038;2022-12-22T08:52:10;9.70;99.90
14511;DHT22;7341;50.930;4.038;2022-12-22T08:54:37;9.70;99.90
14511;DHT22;7341;50.930;4.038;2022-12-22T08:57:04;9.70;99.90
14511;DHT22;7341;50.930;4.038;2022-12-22T08:59:48;9.70;99.90
14511;DHT22;7341;50.930;4.038;2022-12-22T09:02:15;9.60;99.90
14511;DHT22;7341;50.930;4.038;2022-12-22T09:04:42;9.60;99.90
14511;DHT22;7341;50.930;4.038;2022-12-22T09:07:24;9.70;99.90
14511;DHT22;7341;50.930;4.038;2022-12-22T09:09:54;9.70;99.90
14511;DHT22;7341;50.930;4.038;2022-12-22T09:12:22;9.70;99.90
14511;DHT22;7341;50.930;4.038;2022-12-22T09:14:50;9.90;99.90
14511;DHT22;7341;50.930;4.038;2022-12-22T09:17:18;9.80;99.90
14511;DHT22;7341;50.930;4.038;2022-12-22T09:19:45;9.80;99.90
14511;DHT22;7341;50.930;4.038;2022-12-22T09:22:14;9.80;99.90
14511;DHT22;7341;50.930;4.038;2022-12-22T09:24:42;9.70;99.90
14511;DHT22;7341;50.930;4.038;2022-12-22T09:27:11;9.70;99.90
14511;DHT22;7341;50.930;4.038;2022-12-22T09:29:39;9.70;99.90
14511;DHT22;7341;50.930;4.038;2022-12-22T09:32:32;9.70;99.90
14511;DHT22;7341;50.930;4.038;2022-12-22T09:35:00;9.60;99.90
14511;DHT22;7341;50.930;4.038;2022-12-22T09:37:27;9.50;99.90
14511;DHT22;7341;50.930;4.038;2022-12-22T09:39:55;9.60;99.90
14511;DHT22;7341;50.930;4.038;2022-12-22T09:42:26;9.50;99.90
14511;DHT22;7341;50.930;4.038;2022-12-22T09:45:04;9.70;99.90
14511;DHT22;7341;50.930;4.038;2022-12-22T09:47:37;9.60;99.90
14511;DHT22;7341;50.930;4.038;2022-12-22T09:50:11;9.60;99.90
14511;DHT22;7341;50.930;4.038;2022-12-22T09:52:45;9.50;99.90
14511;DHT22;7341;50.930;4.038;2022-12-22T09:55:23;9.50;99.90
14511;DHT22;7341;50.930;4.038;2022-12-22T09:57:53;9.50;99.90
14511;DHT22;7341;50.930;4.038;2022-12-22T10:00:24;9.40;99.90
14511;DHT22;7341;50.930;4.038;2022-12-22T10:02:59;9.40;99.90
14511;DHT22;7341;50.930;4.038;2022-12-22T10:05:34;9.30;99.90
14511;DHT22;7341;50.930;4.038;2022-12-22T10:08:10;9.40;99.90
14511;DHT22;7341;50.930;4.038;2022-12-22T10:10:38;9.30;99.90
14511;DHT22;7341;50.930;4.038;2022-12-22T10:13:20;9.40;99.90
14511;DHT22;7341;50.930;4.038;2022-12-22T10:15:49;9.40;99.90
14511;DHT22;7341;50.930;4.038;2022-12-22T10:18:21;9.30;99.90
14511;DHT22;7341;50.930;4.038;2022-12-22T10:21:09;9.40;99.90
14511;DHT22;7341;50.930;4.038;2022-12-22T10:23:39;9.40;99.90
14511;DHT22;7341;50.930;4.038;2022-12-22T10:26:08;9.50;99.90
14511;DHT22;7341;50.930;4.038;2022-12-22T10:28:40;9.60;99.90
14511;DHT22;7341;50.930;4.038;2022-12-22T10:31:12;9.70;99.90
14511;DHT22;7341;50.930;4.038;2022-12-22T10:33:42;9.80;99.90
14511;DHT22;7341;50.930;4.038;2022-12-22T10:36:17;9.90;99.90
14511;DHT22;7341;50.930;4.038;2022-12-22T10:38:58;9.80;99.90
14511;DHT22;7341;50.930;4.038;2022-12-22T10:41:27;9.80;99.90
14511;DHT22;7341;50.930;4.038;2022-12-22T10:43:56;9.80;99.90
14511;DHT22;7341;50.930;4.038;2022-12-22T10:46:31;9.70;99.90
14511;DHT22;7341;50.930;4.038;2022-12-22T10:49:17;9.80;99.90
14511;DHT22;7341;50.930;4.038;2022-12-22T10:51:46;9.80;99.90
14511;DHT22;7341;50.930;4.038;2022-12-22T10:54:28;9.90;99.90
14511;DHT22;7341;50.930;4.038;2022-12-22T10:57:04;10.00;99.90
14511;DHT22;7341;50.930;4.038;2022-12-22T10:59:32;10.10;99.90
14511;DHT22;7341;50.930;4.038;2022-12-22T11:02:26;10.10;99.90
14511;DHT22;7341;50.930;4.038;2022-12-22T11:05:00;10.20;99.90
14511;DHT22;7341;50.930;4.038;2022-12-22T11:07:33;10.30;99.90
14511;DHT22;7341;50.930;4.038;2022-12-22T11:10:00;10.20;99.90
14511;DHT22;7341;50.930;4.038;2022-12-22T11:12:34;10.20;99.90
14511;DHT22;7341;50.930;4.038;2022-12-22T11:15:12;10.20;99.90
14511;DHT22;7341;50.930;4.038;2022-12-22T11:18:04;10.40;99.90
14511;DHT22;7341;50.930;4.038;2022-12-22T11:20:57;10.30;99.90
14511;DHT22;7341;50.930;4.038;2022-12-22T11:23:32;10.20;99.90
14511;DHT22;7341;50.930;4.038;2022-12-22T11:26:08;10.30;99.90
14511;DHT22;7341;50.930;4.038;2022-12-22T11:28:47;10.40;99.90
14511;DHT22;7341;50.930;4.038;2022-12-22T11:34:19;10.40;99.90
14511;DHT22;7341;50.930;4.038;2022-12-22T11:37:11;10.30;99.90
14511;DHT22;7341;50.930;4.038;2022-12-22T11:39:57;10.40;99.90
14511;DHT22;7341;50.930;4.038;2022-12-22T11:49:08;10.50;99.90
14511;DHT22;7341;50.930;4.038;2022-12-22T11:52:02;10.40;99.90
14511;DHT22;7341;50.930;4.038;2022-12-22T11:55:19;10.40;99.90
14511;DHT22;7341;50.930;4.038;2022-12-22T11:58:30;10.40;99.90
14511;DHT22;7341;50.930;4.038;2022-12-22T12:01:10;10.50;99.90
14511;DHT22;7341;50.930;4.038;2022-12-22T12:07:08;10.70;99.90
14511;DHT22;7341;50.930;4.038;2022-12-22T12:09:45;10.70;99.90
14511;DHT22;7341;50.930;4.038;2022-12-22T12:12:19;10.70;99.90
14511;DHT22;7341;50.930;4.038;2022-12-22T12:14:53;10.90;99.90
14511;DHT22;7341;50.930;4.038;2022-12-22T12:17:40;10.90;99.90
14511;DHT22;7341;50.930;4.038;2022-12-22T12:20:22;11.00;99.90
14511;DHT22;7341;50.930;4.038;2022-12-22T12:23:06;11.00;99.90
14511;DHT22;7341;50.930;4.038;2022-12-22T12:25:39;10.90;99.90
14511;DHT22;7341;50.930;4.038;2022-12-22T12:28:20;10.90;99.90
14511;DHT22;7341;50.930;4.038;2022-12-22T12:30:52;10.90;99.90
14511;DHT22;7341;50.930;4.038;2022-12-22T12:33:30;10.80;99.90
14511;DHT22;7341;50.930;4.038;2022-12-22T12:36:05;10.90;99.90
14511;DHT22;7341;50.930;4.038;2022-12-22T12:38:40;10.90;99.90
14511;DHT22;7341;50.930;4.038;2022-12-22T12:41:17;10.90;99.90
14511;DHT22;7341;50.930;4.038;2022-12-22T12:43:48;10.70;99.90
14511;DHT22;7341;50.930;4.038;2022-12-22T12:47:03;10.60;99.90
14511;DHT22;7341;50.930;4.038;2022-12-22T12:49:56;10.50;99.90
14511;DHT22;7341;50.930;4.038;2022-12-22T12:55:53;10.40;99.90
14511;DHT22;7341;50.930;4.038;2022-12-22T12:58:46;10.40;99.90
14511;DHT22;7341;50.930;4.038;2022-12-22T13:08:08;10.40;99.90
14511;DHT22;7341;50.930;4.038;2022-12-22T13:10:38;10.50;99.90
14511;DHT22;7341;50.930;4.038;2022-12-22T13:13:09;10.50;99.90
14511;DHT22;7341;50.930;4.038;2022-12-22T13:15:38;10.40;99.90
14511;DHT22;7341;50.930;4.038;2022-12-22T13:18:38;10.40;99.90
14511;DHT22;7341;50.930;4.038;2022-12-22T13:21:11;10.40;99.90
14511;DHT22;7341;50.930;4.038;2022-12-22T13:23:43;10.40;99.90
14511;DHT22;7341;50.930;4.038;2022-12-22T13:26:13;10.40;99.90
14511;DHT22;7341;50.930;4.038;2022-12-22T13:28:42;10.40;99.90
14511;DHT22;7341;50.930;4.038;2022-12-22T13:31:15;10.40;99.90
14511;DHT22;7341;50.930;4.038;2022-12-22T13:33:44;10.40;99.90
14511;DHT22;7341;50.930;4.038;2022-12-22T13:36:16;10.50;99.90
14511;DHT22;7341;50.930;4.038;2022-12-22T13:38:45;10.50;99.90
14511;DHT22;7341;50.930;4.038;2022-12-22T13:41:15;10.50;99.90
14511;DHT22;7341;50.930;4.038;2022-12-22T13:43:46;10.60;99.90
14511;DHT22;7341;50.930;4.038;2022-12-22T13:46:14;10.50;99.90
14511;DHT22;7341;50.930;4.038;2022-12-22T13:48:43;10.60;99.90
14511;DHT22;7341;50.930;4.038;2022-12-22T13:51:16;10.70;99.90
14511;DHT22;7341;50.930;4.038;2022-12-22T13:53:47;10.70;99.90
14511;DHT22;7341;50.930;4.038;2022-12-22T13:56:18;10.80;99.90
14511;DHT22;7341;50.930;4.038;2022-12-22T13:58:46;10.70;99.90
14511;DHT22;7341;50.930;4.038;2022-12-22T14:01:17;10.70;99.90
14511;DHT22;7341;50.930;4.038;2022-12-22T14:03:47;10.70;99.90
14511;DHT22;7341;50.930;4.038;2022-12-22T14:06:25;10.80;99.90
14511;DHT22;7341;50.930;4.038;2022-12-22T14:09:08;10.80;99.90
14511;DHT22;7341;50.930;4.038;2022-12-22T14:11:36;10.80;99.90
14511;DHT22;7341;50.930;4.038;2022-12-22T14:14:06;10.90;99.90
14511;DHT22;7341;50.930;4.038;2022-12-22T14:16:34;10.90;99.90
14511;DHT22;7341;50.930;4.038;2022-12-22T14:19:02;11.00;99.90
14511;DHT22;7341;50.930;4.038;2022-12-22T14:21:30;11.00;99.90
14511;DHT22;7341;50.930;4.038;2022-12-22T14:23:58;11.00;99.90
14511;DHT22;7341;50.930;4.038;2022-12-22T14:26:28;11.00;99.90
14511;DHT22;7341;50.930;4.038;2022-12-22T14:28:56;11.00;99.90
14511;DHT22;7341;50.930;4.038;2022-12-22T14:31:23;11.00;99.90
14511;DHT22;7341;50.930;4.038;2022-12-22T14:33:51;11.00;99.90
14511;DHT22;7341;50.930;4.038;2022-12-22T14:36:24;11.00;99.90
14511;DHT22;7341;50.930;4.038;2022-12-22T14:38:52;11.10;99.90
14511;DHT22;7341;50.930;4.038;2022-12-22T14:41:23;11.10;99.90
14511;DHT22;7341;50.930;4.038;2022-12-22T14:44:16;11.10;99.90
14511;DHT22;7341;50.930;4.038;2022-12-22T14:46:44;11.00;99.90
14511;DHT22;7341;50.930;4.038;2022-12-22T14:49:17;11.00;99.90
14511;DHT22;7341;50.930;4.038;2022-12-22T14:51:52;11.00;99.90
14511;DHT22;7341;50.930;4.038;2022-12-22T14:54:24;11.10;99.90
14511;DHT22;7341;50.930;4.038;2022-12-22T14:56:58;11.20;99.90
14511;DHT22;7341;50.930;4.038;2022-12-22T14:59:27;11.20;99.90
14511;DHT22;7341;50.930;4.038;2022-12-22T15:02:01;11.30;99.90
14511;DHT22;7341;50.930;4.038;2022-12-22T15:04:30;11.20;99.90
14511;DHT22;7341;50.930;4.038;2022-12-22T15:07:04;11.20;99.90
14511;DHT22;7341;50.930;4.038;2022-12-22T15:09:32;11.30;99.90
14511;DHT22;7341;50.930;4.038;2022-12-22T15:12:05;11.30;99.90
14511;DHT22;7341;50.930;4.038;2022-12-22T15:14:34;11.30;99.90
14511;DHT22;7341;50.930;4.038;2022-12-22T15:17:02;11.30;99.90
14511;DHT22;7341;50.930;4.038;2022-12-22T15:19:30;11.20;99.90
14511;DHT22;7341;50.930;4.038;2022-12-22T15:21:58;11.30;99.90
14511;DHT22;7341;50.930;4.038;2022-12-22T15:24:25;11.20;99.90
14511;DHT22;7341;50.930;4.038;2022-12-22T15:26:53;11.30;99.90
14511;DHT22;7341;50.930;4.038;2022-12-22T15:29:23;11.40;99.90
14511;DHT22;7341;50.930;4.038;2022-12-22T15:31:50;11.40;99.90
14511;DHT22;7341;50.930;4.038;2022-12-22T15:34:21;11.50;99.90
14511;DHT22;7341;50.930;4.038;2022-12-22T15:36:48;11.40;99.90
14511;DHT22;7341;50.930;4.038;2022-12-22T15:39:19;11.50;99.90
14511;DHT22;7341;50.930;4.038;2022-12-22T15:41:54;11.40;99.90
14511;DHT22;7341;50.930;4.038;2022-12-22T15:44:23;11.40;99.90
14511;DHT22;7341;50.930;4.038;2022-12-22T15:46:53;11.30;99.90
14511;DHT22;7341;50.930;4.038;2022-12-22T15:49:22;11.30;99.90
14511;DHT22;7341;50.930;4.038;2022-12-22T15:51:52;11.30;99.90
14511;DHT22;7341;50.930;4.038;2022-12-22T15:54:20;11.30;99.90
14511;DHT22;7341;50.930;4.038;2022-12-22T15:56:48;11.30;99.90
14511;DHT22;7341;50.930;4.038;2022-12-22T15:59:18;11.40;99.90
14511;DHT22;7341;50.930;4.038;2022-12-22T16:01:48;11.40;99.90
14511;DHT22;7341;50.930;4.038;2022-12-22T16:04:16;11.40;99.90
14511;DHT22;7341;50.930;4.038;2022-12-22T16:06:43;11.50;99.90
14511;DHT22;7341;50.930;4.038;2022-12-22T16:09:17;11.40;99.90
14511;DHT22;7341;50.930;4.038;2022-12-22T16:11:53;11.30;99.90
14511;DHT22;7341;50.930;4.038;2022-12-22T16:14:26;11.30;99.90
14511;DHT22;7341;50.930;4.038;2022-12-22T16:16:57;11.50;99.90
14511;DHT22;7341;50.930;4.038;2022-12-22T16:22:09;11.40;99.90
14511;DHT22;7341;50.930;4.038;2022-12-22T16:25:24;11.40;99.90
14511;DHT22;7341;50.930;4.038;2022-12-22T16:28:26;11.50;99.90
14511;DHT22;7341;50.930;4.038;2022-12-22T16:37:36;11.40;99.90
14511;DHT22;7341;50.930;4.038;2022-12-22T16:47:03;11.30;99.90
14511;DHT22;7341;50.930;4.038;2022-12-22T16:50:04;11.30;99.90
14511;DHT22;7341;50.930;4.038;2022-12-22T16:52:41;11.30;99.90
14511;DHT22;7341;50.930;4.038;2022-12-22T16:55:14;11.40;99.90
14511;DHT22;7341;50.930;4.038;2022-12-22T16:57:57;11.40;99.90
14511;DHT22;7341;50.930;4.038;2022-12-22T17:04:30;11.40;99.90
14511;DHT22;7341;50.930;4.038;2022-12-22T17:07:13;11.40;99.90
14511;DHT22;7341;50.930;4.038;2022-12-22T17:09:52;11.30;99.90
14511;DHT22;7341;50.930;4.038;2022-12-22T17:12:27;11.30;99.90
14511;DHT22;7341;50.930;4.038;2022-12-22T17:15:05;11.30;99.90
14511;DHT22;7341;50.930;4.038;2022-12-22T17:20:51;11.40;99.90
14511;DHT22;7341;50.930;4.038;2022-12-22T17:23:39;11.40;99.90
14511;DHT22;7341;50.930;4.038;2022-12-22T17:26:32;11.40;99.90
14511;DHT22;7341;50.930;4.038;2022-12-22T17:29:00;11.40;99.90
14511;DHT22;7341;50.930;4.038;2022-12-22T17:31:27;11.50;99.90
14511;DHT22;7341;50.930;4.038;2022-12-22T17:34:35;11.50;99.90
14511;DHT22;7341;50.930;4.038;2022-12-22T17:46:04;11.50;99.90
14511;DHT22;7341;50.930;4.038;2022-12-22T17:49:05;11.60;99.90
14511;DHT22;7341;50.930;4.038;2022-12-22T17:51:37;11.60;99.90
14511;DHT22;7341;50.930;4.038;2022-12-22T17:54:25;11.50;99.90
14511;DHT22;7341;50.930;4.038;2022-12-22T17:56:59;11.50;99.90
14511;DHT22;7341;50.930;4.038;2022-12-22T17:59:28;11.50;99.90
14511;DHT22;7341;50.930;4.038;2022-12-22T18:05:28;11.40;99.90
14511;DHT22;7341;50.930;4.038;2022-12-22T18:08:58;11.50;99.90
14511;DHT22;7341;50.930;4.038;2022-12-22T18:12:23;11.30;99.90
14511;DHT22;7341;50.930;4.038;2022-12-22T18:15:17;11.40;99.90
14511;DHT22;7341;50.930;4.038;2022-12-22T18:17:53;11.40;99.90
14511;DHT22;7341;50.930;4.038;2022-12-22T18:23:48;11.40;99.90
14511;DHT22;7341;50.930;4.038;2022-12-22T18:26:37;11.40;99.90
14511;DHT22;7341;50.930;4.038;2022-12-22T18:29:12;11.50;99.90
14511;DHT22;7341;50.930;4.038;2022-12-22T18:31:43;11.30;99.90
14511;DHT22;7341;50.930;4.038;2022-12-22T18:34:15;11.40;99.90
14511;DHT22;7341;50.930;4.038;2022-12-22T18:36:51;11.30;99.90
14511;DHT22;7341;50.930;4.038;2022-12-22T18:42:58;11.30;99.90
14511;DHT22;7341;50.930;4.038;2022-12-22T18:45:46;11.40;99.90
14511;DHT22;7341;50.930;4.038;2022-12-22T18:48:34;11.40;99.90
14511;DHT22;7341;50.930;4.038;2022-12-22T18:51:33;11.50;99.90
14511;DHT22;7341;50.930;4.038;2022-12-22T18:54:39;11.50;99.90
14511;DHT22;7341;50.930;4.038;2022-12-22T19:07:50;11.40;99.90
14511;DHT22;7341;50.930;4.038;2022-12-22T19:10:27;11.40;99.90
14511;DHT22;7341;50.930;4.038;2022-12-22T19:16:00;11.50;99.90
14511;DHT22;7341;50.930;4.038;2022-12-22T19:18:30;11.70;99.90
14511;DHT22;7341;50.930;4.038;2022-12-22T19:21:04;11.50;99.90
14511;DHT22;7341;50.930;4.038;2022-12-22T19:23:37;11.60;99.90
14511;DHT22;7341;50.930;4.038;2022-12-22T19:26:05;11.60;99.90
14511;DHT22;7341;50.930;4.038;2022-12-22T19:28:41;11.60;99.90
14511;DHT22;7341;50.930;4.038;2022-12-22T19:31:17;11.60;99.90
14511;DHT22;7341;50.930;4.038;2022-12-22T19:33:52;11.40;99.90
14511;DHT22;7341;50.930;4.038;2022-12-22T19:36:26;11.40;99.90
14511;DHT22;7341;50.930;4.038;2022-12-22T19:39:01;11.50;99.90
14511;DHT22;7341;50.930;4.038;2022-12-22T19:41:49;11.40;99.90
14511;DHT22;7341;50.930;4.038;2022-12-22T19:44:46;11.40;99.90
14511;DHT22;7341;50.930;4.038;2022-12-22T19:51:23;11.40;99.90
14511;DHT22;7341;50.930;4.038;2022-12-22T19:54:01;11.40;99.90
14511;DHT22;7341;50.930;4.038;2022-12-22T19:56:56;11.40;99.90
14511;DHT22;7341;50.930;4.038;2022-12-22T20:02:56;11.40;99.90
14511;DHT22;7341;50.930;4.038;2022-12-22T20:06:00;11.40;99.90
14511;DHT22;7341;50.930;4.038;2022-12-22T20:08:41;11.40;99.90
14511;DHT22;7341;50.930;4.038;2022-12-22T20:14:17;11.40;99.90
14511;DHT22;7341;50.930;4.038;2022-12-22T20:17:04;11.40;99.90
14511;DHT22;7341;50.930;4.038;2022-12-22T20:19:39;11.50;99.90
14511;DHT22;7341;50.930;4.038;2022-12-22T20:22:48;11.50;99.90